createdAt,value
2017-02-21T00:06:46.182Z,14
2017-02-21T00:16:46.273Z,14
2017-02-21T00:26:46.111Z,16
2017-02-21T00:36:46.123Z,17
2017-02-21T00:46:46.207Z,17
2017-02-21T00:56:46.140Z,16
2017-02-21T01:06:46.299Z,16
2017-02-21T01:16:46.115Z,15
2017-02-21T01:26:46.242Z,15
2017-02-21T01:36:46.206Z,14
2017-02-21T01:46:46.229Z,14
2017-02-21T01:56:46.251Z,14
2017-02-21T02:06:46.263Z,11
2017-02-21T02:16:46.219Z,11
2017-02-21T02:26:46.280Z,12
2017-02-21T02:36:46.282Z,11
2017-02-21T02:46:46.357Z,10
2017-02-21T02:56:46.267Z,10
2017-02-21T03:06:46.321Z,9
2017-02-21T03:16:46.285Z,9
2017-02-21T03:26:46.253Z,7
2017-02-21T03:36:46.279Z,6
2017-02-21T03:46:46.289Z,6
2017-02-21T03:56:46.338Z,5
2017-02-21T04:06:46.306Z,5
2017-02-21T04:16:46.410Z,7
2017-02-21T04:26:46.355Z,7
2017-02-21T04:36:46.374Z,10
2017-02-21T04:46:46.339Z,9
2017-02-21T04:56:46.436Z,8
2017-02-21T05:06:46.342Z,7
2017-02-21T05:16:46.413Z,7
2017-02-21T05:26:46.412Z,7
2017-02-21T05:36:46.439Z,7
2017-02-21T05:46:46.432Z,6
2017-02-21T05:56:46.389Z,8
2017-02-21T06:06:46.448Z,9
2017-02-21T06:16:46.431Z,9
2017-02-21T06:26:46.477Z,9
2017-02-21T06:36:46.446Z,9
2017-02-21T06:46:46.573Z,9
2017-02-21T06:56:46.431Z,9
2017-02-21T07:06:46.549Z,9
2017-02-21T07:16:46.843Z,11
2017-02-21T07:26:46.485Z,9
2017-02-21T07:36:46.485Z,9
2017-02-21T07:46:46.585Z,9
2017-02-21T07:56:46.607Z,9
2017-02-21T08:06:46.600Z,8
2017-02-21T08:16:47.658Z,8
2017-02-21T08:26:46.463Z,7
2017-02-21T08:36:46.539Z,6
2017-02-21T08:46:46.521Z,5
2017-02-21T08:56:46.616Z,6
2017-02-21T09:06:46.711Z,5
2017-02-21T09:16:46.605Z,6
2017-02-21T09:26:46.616Z,7
2017-02-21T09:36:46.733Z,6
2017-02-21T09:46:46.768Z,4
2017-02-21T09:56:46.705Z,6
2017-02-21T10:06:46.648Z,4
2017-02-21T10:16:46.737Z,5
2017-02-21T10:26:46.649Z,5
2017-02-21T10:36:46.755Z,5
2017-02-21T10:46:46.742Z,4
2017-02-21T10:56:46.750Z,5
2017-02-21T11:06:46.815Z,5
2017-02-21T11:16:46.721Z,4
2017-02-21T11:26:48.081Z,4
2017-02-21T11:36:46.724Z,5
2017-02-21T11:46:46.695Z,5
2017-02-21T11:56:46.712Z,4
2017-02-21T12:06:46.941Z,5
2017-02-21T12:16:46.798Z,5
2017-02-21T12:26:46.712Z,5
2017-02-21T12:36:46.711Z,5
2017-02-21T12:46:46.707Z,3
2017-02-21T12:56:46.762Z,2
2017-02-21T13:06:46.748Z,2
2017-02-21T13:16:47.053Z,2
2017-02-21T13:26:47.092Z,2
2017-02-21T13:36:46.856Z,2
2017-02-21T13:46:46.774Z,2
2017-02-21T13:56:47.174Z,2
2017-02-21T14:06:46.805Z,3
2017-02-21T14:16:46.827Z,2
2017-02-21T14:26:46.838Z,4
2017-02-21T14:36:46.866Z,4
2017-02-21T14:46:46.818Z,4
2017-02-21T14:56:46.905Z,4
2017-02-21T15:06:46.866Z,4
2017-02-21T15:16:46.839Z,4
2017-02-21T15:26:46.979Z,6
2017-02-21T15:36:46.954Z,6
2017-02-21T15:46:47.000Z,6
2017-02-21T15:56:46.992Z,5
2017-02-21T16:06:46.976Z,4
2017-02-21T16:16:47.442Z,4
2017-02-21T16:26:46.839Z,6
2017-02-21T16:36:46.837Z,5
2017-02-21T16:46:46.846Z,6
2017-02-21T16:56:46.896Z,6
2017-02-21T17:06:46.828Z,5
2017-02-21T17:16:46.897Z,6
2017-02-21T17:26:46.868Z,6
2017-02-21T17:36:46.904Z,6
2017-02-21T17:46:46.854Z,7
2017-02-21T17:56:47.180Z,5
2017-02-21T18:06:46.892Z,7
2017-02-21T18:16:46.895Z,6
2017-02-21T18:26:46.948Z,9
2017-02-21T18:36:46.868Z,8
2017-02-21T18:46:46.840Z,7
2017-02-21T18:56:47.096Z,8
2017-02-21T19:06:46.840Z,8
2017-02-21T19:16:47.040Z,9
2017-02-21T19:26:47.522Z,8
2017-02-21T19:36:46.824Z,7
2017-02-21T19:46:57.975Z,10
2017-02-21T20:07:04.991Z,9
2017-02-21T20:17:01.959Z,9
2017-02-21T20:27:00.844Z,9
2017-02-21T20:37:00.938Z,10
2017-02-21T20:47:07.182Z,8
2017-02-21T20:57:01.763Z,10
2017-02-21T21:06:47.580Z,12
2017-02-21T21:16:47.403Z,12
2017-02-21T21:26:46.922Z,13
2017-02-21T21:36:46.970Z,13
2017-02-21T21:46:46.929Z,16
2017-02-21T21:57:04.907Z,19
2017-02-21T22:06:47.086Z,25
2017-02-21T22:16:46.929Z,30
2017-02-21T22:26:46.886Z,33
2017-02-21T22:36:46.867Z,30
2017-02-21T22:46:59.338Z,32
2017-02-21T22:56:46.820Z,33
2017-02-21T23:06:46.873Z,28
2017-02-21T23:16:46.925Z,24
2017-02-21T23:26:46.807Z,24
2017-02-21T23:36:46.854Z,25
2017-02-21T23:46:46.905Z,22
2017-02-21T23:56:46.987Z,18
